Time;durP1;ratioP1;P1;durP2;ratioP2;P2;SDS_P1;SDS_P2;PMS_P1;PMS_P2;Temp;Humidity;BMP_temperature;BMP_pressure;BME280_temperature;BME280_humidity;BME280_pressure;Samples;Min_cycle;Max_cycle;Signal;HPM_P1;HPM_P2
2022/09/30 00:01:09;;;;;;;3.87;3.53;;;;;;;;;;5044926;28;20972;-67
2022/09/30 00:03:35;;;;;;;3.60;3.50;;;;;;;;;;5039423;28;20445;-68
2022/09/30 00:06:03;;;;;;;8.83;3.40;;;;;;;;;;5048482;28;20434;-68
2022/09/30 00:08:29;;;;;;;2.97;2.87;;;;;;;;;;5046561;28;20442;-68
2022/09/30 00:11:15;;;;;;;4.10;3.90;;;;;;;;;;5049297;28;20442;-68
2022/09/30 00:13:41;;;;;;;3.40;3.30;;;;;;;;;;5048081;28;20438;-68
2022/09/30 00:16:09;;;;;;;3.70;3.43;;;;;;;;;;5049036;28;21009;-68
2022/09/30 00:18:35;;;;;;;9.37;3.77;;;;;;;;;;5048152;28;20493;-67
2022/09/30 00:21:01;;;;;;;4.20;4.10;;;;;;;;;;5048077;28;20418;-68
2022/09/30 00:23:28;;;;;;;3.23;3.13;;;;;;;;;;5048593;28;20449;-67
2022/09/30 00:25:58;;;;;;;3.20;2.53;;;;;;;;;;5047435;28;20465;-67
2022/09/30 00:28:24;;;;;;;4.37;4.27;;;;;;;;;;5047842;28;20437;-67
2022/09/30 00:30:50;;;;;;;3.67;3.57;;;;;;;;;;5048506;28;20484;-67
2022/09/30 00:33:16;;;;;;;3.20;3.10;;;;;;;;;;5048922;28;20422;-67
2022/09/30 00:35:42;;;;;;;3.07;2.97;;;;;;;;;;5047933;28;20434;-68
2022/09/30 00:38:08;;;;;;;3.97;3.80;;;;;;;;;;5047979;28;20438;-67
2022/09/30 00:40:34;;;;;;;3.40;3.30;;;;;;;;;;5049254;28;20418;-67
2022/09/30 00:43:00;;;;;;;3.77;3.47;;;;;;;;;;5045978;28;20486;-67
2022/09/30 00:45:28;;;;;;;4.00;3.70;;;;;;;;;;5048977;28;20425;-67
2022/09/30 00:48:04;;;;;;;2.90;2.80;;;;;;;;;;5048288;28;20517;-67
2022/09/30 00:50:47;;;;;;;4.43;3.50;;;;;;;;;;5047755;28;20903;-67
2022/09/30 00:53:16;;;;;;;3.20;3.03;;;;;;;;;;5047814;28;20434;-68
2022/09/30 00:55:56;;;;;;;3.17;2.97;;;;;;;;;;5047098;28;20434;-67
2022/09/30 00:58:30;;;;;;;3.13;3.03;;;;;;;;;;5044356;28;20434;-67
2022/09/30 01:00:58;;;;;;;3.10;3.00;;;;;;;;;;5047330;28;20608;-67
2022/09/30 01:03:24;;;;;;;2.80;2.63;;;;;;;;;;5051014;28;20434;-68
2022/09/30 01:05:50;;;;;;;3.10;2.90;;;;;;;;;;5052235;28;20430;-67
2022/09/30 01:08:18;;;;;;;3.63;3.30;;;;;;;;;;5051568;28;20474;-67
2022/09/30 01:10:44;;;;;;;3.40;3.10;;;;;;;;;;5052968;28;20892;-68
2022/09/30 01:13:10;;;;;;;3.73;3.33;;;;;;;;;;5052698;28;20925;-67
2022/09/30 01:15:43;;;;;;;3.13;3.03;;;;;;;;;;5050658;28;20430;-67
2022/09/30 01:18:20;;;;;;;3.00;3.00;;;;;;;;;;5050453;28;20434;-67
2022/09/30 01:20:52;;;;;;;3.23;3.13;;;;;;;;;;5051954;28;20576;-67
2022/09/30 01:23:21;;;;;;;4.43;4.17;;;;;;;;;;5051438;28;20457;-67
2022/09/30 01:25:59;;;;;;;4.07;3.77;;;;;;;;;;5048962;28;20437;-67
2022/09/30 01:28:38;;;;;;;3.93;3.83;;;;;;;;;;5049501;28;20525;-67
2022/09/30 01:31:09;;;;;;;3.90;3.80;;;;;;;;;;5049834;28;20477;-67
2022/09/30 01:33:49;;;;;;;4.17;3.87;;;;;;;;;;5051983;28;20995;-67
2022/09/30 01:36:17;;;;;;;5.00;4.70;;;;;;;;;;5052553;28;20467;-68
2022/09/30 01:39:13;;;;;;;4.77;4.40;;;;;;;;;;5050523;28;20434;-67
2022/09/30 01:41:44;;;;;;;4.93;4.63;;;;;;;;;;4995240;28;20484;-67
2022/09/30 01:44:14;;;;;;;3.70;3.60;;;;;;;;;;5049963;28;20461;-67
2022/09/30 01:46:51;;;;;;;4.03;3.73;;;;;;;;;;5052222;28;20411;-67
2022/09/30 01:49:19;;;;;;;3.87;3.77;;;;;;;;;;5050454;28;20438;-67
2022/09/30 01:51:52;;;;;;;4.23;4.03;;;;;;;;;;5049404;28;20437;-67
2022/09/30 01:54:30;;;;;;;4.77;4.47;;;;;;;;;;5051176;28;20443;-67
2022/09/30 01:57:02;;;;;;;4.87;4.47;;;;;;;;;;5050723;28;20430;-67
2022/09/30 01:59:41;;;;;;;4.27;4.00;;;;;;;;;;5050385;28;20914;-67
2022/09/30 02:02:24;;;;;;;4.23;3.93;;;;;;;;;;5050259;28;20470;-67
2022/09/30 02:05:02;;;;;;;4.70;4.40;;;;;;;;;;5051126;28;20427;-68
2022/09/30 02:07:30;;;;;;;3.67;3.57;;;;;;;;;;5050012;28;20427;-67
2022/09/30 02:09:59;;;;;;;4.23;3.93;;;;;;;;;;5050284;28;20984;-68
2022/09/30 02:12:27;;;;;;;14.37;3.97;;;;;;;;;;5050589;28;20438;-68
2022/09/30 02:14:58;;;;;;;4.60;4.40;;;;;;;;;;5051713;28;20417;-67
2022/09/30 02:17:30;;;;;;;3.80;3.50;;;;;;;;;;5050335;28;20438;-67
2022/09/30 02:20:01;;;;;;;4.40;4.20;;;;;;;;;;5051081;28;20926;-67
2022/09/30 02:22:45;;;;;;;4.30;4.20;;;;;;;;;;5048795;28;20573;-67
2022/09/30 02:25:19;;;;;;;5.03;4.70;;;;;;;;;;5050496;28;20434;-67
2022/09/30 02:27:47;;;;;;;6.23;4.60;;;;;;;;;;5050797;28;20424;-67
2022/09/30 02:30:14;;;;;;;4.57;4.30;;;;;;;;;;5051434;28;20411;-67
2022/09/30 02:32:46;;;;;;;5.47;5.03;;;;;;;;;;5049136;28;20540;-68
2022/09/30 02:35:17;;;;;;;5.23;4.73;;;;;;;;;;5051238;28;20425;-67
2022/09/30 02:37:47;;;;;;;4.80;4.50;;;;;;;;;;5050390;28;20488;-67
2022/09/30 02:40:19;;;;;;;4.30;4.10;;;;;;;;;;5050540;28;20438;-67
2022/09/30 02:42:45;;;;;;;5.07;4.80;;;;;;;;;;5050894;28;20570;-67
2022/09/30 02:45:15;;;;;;;5.40;5.10;;;;;;;;;;5051240;28;20410;-67
2022/09/30 02:47:46;;;;;;;9.10;5.87;;;;;;;;;;5047787;28;20496;-67
2022/09/30 02:50:31;;;;;;;8.90;5.10;;;;;;;;;;5049620;28;20455;-67
2022/09/30 02:53:13;;;;;;;5.63;5.23;;;;;;;;;;5050214;28;20430;-67
2022/09/30 02:56:14;;;;;;;5.17;4.87;;;;;;;;;;5050903;28;20414;-67
2022/09/30 02:58:42;;;;;;;4.83;4.63;;;;;;;;;;5025087;28;20703;-67
2022/09/30 03:01:12;;;;;;;4.83;4.63;;;;;;;;;;5045432;28;20466;-67
2022/09/30 03:03:41;;;;;;;7.13;4.90;;;;;;;;;;5049796;28;20446;-67
2022/09/30 03:06:08;;;;;;;5.70;5.27;;;;;;;;;;5050139;28;20430;-67
2022/09/30 03:08:34;;;;;;;5.67;5.37;;;;;;;;;;5049269;28;20442;-67
2022/09/30 03:11:00;;;;;;;4.90;4.70;;;;;;;;;;5049386;28;20421;-67
2022/09/30 03:13:45;;;;;;;6.13;5.63;;;;;;;;;;5048875;28;20782;-67
2022/09/30 03:16:11;;;;;;;5.57;5.20;;;;;;;;;;5050784;28;20767;-67
2022/09/30 03:18:40;;;;;;;5.40;5.10;;;;;;;;;;5049063;28;20965;-67
2022/09/30 03:21:24;;;;;;;5.40;5.10;;;;;;;;;;5049262;28;20525;-67
2022/09/30 03:24:03;;;;;;;6.77;4.80;;;;;;;;;;5047133;28;20449;-67
2022/09/30 03:26:34;;;;;;;6.43;5.93;;;;;;;;;;5049475;28;20422;-67
2022/09/30 03:29:26;;;;;;;5.93;5.53;;;;;;;;;;5048468;28;20797;-67
2022/09/30 03:31:57;;;;;;;5.43;5.13;;;;;;;;;;5041588;28;20414;-67
2022/09/30 03:34:46;;;;;;;5.63;5.33;;;;;;;;;;5049244;28;21417;-67
2022/09/30 03:37:19;;;;;;;5.73;5.33;;;;;;;;;;5047462;28;20430;-67
2022/09/30 03:39:48;;;;;;;6.60;5.83;;;;;;;;;;5047743;28;20517;-67
2022/09/30 03:42:16;;;;;;;5.27;4.90;;;;;;;;;;5048727;28;20562;-67
2022/09/30 03:44:47;;;;;;;6.00;5.60;;;;;;;;;;5045554;28;20422;-67
2022/09/30 03:47:16;;;;;;;6.77;5.90;;;;;;;;;;5049187;28;20776;-68
2022/09/30 03:49:44;;;;;;;5.83;5.53;;;;;;;;;;5047724;28;20422;-67
2022/09/30 03:52:12;;;;;;;5.30;5.00;;;;;;;;;;5049904;28;20430;-67
2022/09/30 03:54:45;;;;;;;5.67;5.27;;;;;;;;;;5048130;28;20945;-67
2022/09/30 03:57:13;;;;;;;6.43;6.03;;;;;;;;;;5048519;28;20548;-69
2022/09/30 03:59:39;;;;;;;5.30;5.00;;;;;;;;;;5046250;28;20446;-67
2022/09/30 04:02:11;;;;;;;6.00;5.50;;;;;;;;;;5047479;28;20478;-67
2022/09/30 04:04:38;;;;;;;5.03;4.63;;;;;;;;;;5048864;28;20951;-67
2022/09/30 04:07:04;;;;;;;4.90;4.70;;;;;;;;;;5047929;28;20497;-67
2022/09/30 04:09:30;;;;;;;5.43;5.03;;;;;;;;;;5047440;28;20499;-67
2022/09/30 04:11:56;;;;;;;5.50;5.20;;;;;;;;;;5049247;28;20422;-67
2022/09/30 04:14:22;;;;;;;8.13;5.17;;;;;;;;;;5047929;28;20931;-67
2022/09/30 04:16:48;;;;;;;5.13;4.67;;;;;;;;;;5049038;28;20977;-67
2022/09/30 04:19:14;;;;;;;5.70;5.30;;;;;;;;;;5047517;28;20912;-67
2022/09/30 04:21:40;;;;;;;6.70;5.93;;;;;;;;;;5049484;28;20581;-67
2022/09/30 04:24:06;;;;;;;6.13;5.60;;;;;;;;;;5049504;28;20770;-67
2022/09/30 04:26:32;;;;;;;5.63;5.23;;;;;;;;;;5046242;28;20510;-68
2022/09/30 04:28:58;;;;;;;5.40;5.10;;;;;;;;;;5049122;28;20526;-67
2022/09/30 04:31:24;;;;;;;6.30;5.63;;;;;;;;;;5048317;28;20438;-67
2022/09/30 04:33:51;;;;;;;6.00;5.50;;;;;;;;;;5048565;28;20430;-67
2022/09/30 04:36:17;;;;;;;6.83;6.33;;;;;;;;;;5052381;28;20463;-67
2022/09/30 04:38:43;;;;;;;6.63;5.97;;;;;;;;;;5053099;28;20423;-67
2022/09/30 04:41:14;;;;;;;6.30;5.90;;;;;;;;;;5049926;28;20767;-67
2022/09/30 04:43:45;;;;;;;6.33;5.90;;;;;;;;;;5052201;28;20434;-67
2022/09/30 04:46:12;;;;;;;6.83;6.33;;;;;;;;;;5053428;28;20419;-67
2022/09/30 04:48:38;;;;;;;6.73;6.23;;;;;;;;;;5052965;28;20791;-67
2022/09/30 04:51:04;;;;;;;8.03;6.47;;;;;;;;;;5052029;28;20438;-67
2022/09/30 04:53:30;;;;;;;6.57;5.87;;;;;;;;;;5052845;28;20426;-67
2022/09/30 04:56:00;;;;;;;5.53;5.20;;;;;;;;;;5049209;28;20437;-67
2022/09/30 04:58:26;;;;;;;4.23;4.03;;;;;;;;;;5048503;28;20453;-67
2022/09/30 05:00:59;;;;;;;7.10;4.20;;;;;;;;;;5052042;28;20465;-67
2022/09/30 05:03:25;;;;;;;7.90;4.27;;;;;;;;;;5052621;28;20528;-67
2022/09/30 05:05:51;;;;;;;4.93;3.80;;;;;;;;;;5053047;28;20502;-67
2022/09/30 05:08:16;;;;;;;3.43;3.23;;;;;;;;;;5051459;28;20438;-67
2022/09/30 05:10:42;;;;;;;4.07;3.87;;;;;;;;;;5051254;28;20457;-68
2022/09/30 05:13:09;;;;;;;2.93;2.83;;;;;;;;;;5052004;28;20445;-67
2022/09/30 05:15:35;;;;;;;3.03;2.93;;;;;;;;;;5049368;28;20930;-67
2022/09/30 05:18:01;;;;;;;4.03;3.80;;;;;;;;;;5052416;28;20431;-67
2022/09/30 05:20:27;;;;;;;2.07;2.07;;;;;;;;;;5050168;28;20446;-69
2022/09/30 05:22:54;;;;;;;2.30;2.30;;;;;;;;;;5048030;28;20482;-68
2022/09/30 05:25:20;;;;;;;2.80;2.60;;;;;;;;;;5044240;28;20998;-67
2022/09/30 05:27:50;;;;;;;2.97;2.87;;;;;;;;;;5046171;28;20537;-70
2022/09/30 05:30:16;;;;;;;2.57;2.37;;;;;;;;;;5051106;28;20450;-69
2022/09/30 05:32:43;;;;;;;2.47;2.37;;;;;;;;;;5049120;28;20497;-68
2022/09/30 05:35:10;;;;;;;2.70;2.60;;;;;;;;;;5048444;28;20877;-69
2022/09/30 05:37:36;;;;;;;2.43;2.43;;;;;;;;;;5050172;28;20434;-67
2022/09/30 05:40:02;;;;;;;2.90;2.80;;;;;;;;;;5050906;28;20434;-68
2022/09/30 05:42:31;;;;;;;2.33;2.23;;;;;;;;;;5048674;28;20545;-69
2022/09/30 05:44:57;;;;;;;3.10;3.00;;;;;;;;;;5050554;28;20418;-69
2022/09/30 05:47:23;;;;;;;2.90;2.83;;;;;;;;;;5049660;28;21022;-69
2022/09/30 05:49:49;;;;;;;4.33;2.93;;;;;;;;;;5048723;28;20524;-71
2022/09/30 05:52:15;;;;;;;4.30;4.00;;;;;;;;;;5051149;28;20557;-69
2022/09/30 05:54:41;;;;;;;2.70;2.60;;;;;;;;;;5050675;28;20433;-69
2022/09/30 05:57:07;;;;;;;2.10;2.10;;;;;;;;;;5051042;28;20475;-68
2022/09/30 05:59:33;;;;;;;1.30;1.30;;;;;;;;;;5049179;28;20434;-68
2022/09/30 06:01:59;;;;;;;2.00;2.00;;;;;;;;;;5049721;28;20829;-69
2022/09/30 06:04:25;;;;;;;3.47;3.17;;;;;;;;;;5051121;28;20450;-69
2022/09/30 06:06:52;;;;;;;1.97;1.97;;;;;;;;;;5051113;28;20422;-68
2022/09/30 06:09:18;;;;;;;1.40;1.40;;;;;;;;;;5050179;28;20915;-69
2022/09/30 06:11:44;;;;;;;2.00;1.90;;;;;;;;;;5049906;28;20428;-69
2022/09/30 06:14:10;;;;;;;2.00;1.90;;;;;;;;;;5048999;28;20940;-70
2022/09/30 06:16:36;;;;;;;2.20;2.20;;;;;;;;;;5050944;28;20427;-69
2022/09/30 06:19:02;;;;;;;3.27;2.17;;;;;;;;;;5050109;28;20437;-71
2022/09/30 06:21:28;;;;;;;2.60;2.50;;;;;;;;;;5049402;28;20513;-71
2022/09/30 06:23:54;;;;;;;2.37;2.37;;;;;;;;;;5046047;28;20434;-70
2022/09/30 06:26:20;;;;;;;3.40;3.20;;;;;;;;;;5046836;28;20445;-69
2022/09/30 06:28:46;;;;;;;9.63;3.90;;;;;;;;;;5050004;28;20425;-68
2022/09/30 06:31:13;;;;;;;4.97;3.33;;;;;;;;;;5047552;28;20798;-69
2022/09/30 06:33:39;;;;;;;12.27;9.57;;;;;;;;;;5045572;28;20442;-68
2022/09/30 06:36:06;;;;;;;2.47;2.37;;;;;;;;;;5048670;28;20833;-68
2022/09/30 06:38:33;;;;;;;9.10;5.97;;;;;;;;;;5047483;28;20733;-68
2022/09/30 06:40:59;;;;;;;2.43;2.37;;;;;;;;;;5046195;28;20922;-68
2022/09/30 06:43:25;;;;;;;3.20;3.10;;;;;;;;;;5050680;28;20422;-69
2022/09/30 06:45:51;;;;;;;1.90;1.90;;;;;;;;;;5047054;28;20457;-70
2022/09/30 06:48:17;;;;;;;1.93;1.90;;;;;;;;;;5042870;28;20433;-70
2022/09/30 06:50:44;;;;;;;2.03;1.80;;;;;;;;;;5044734;28;20453;-68
2022/09/30 06:53:11;;;;;;;4.50;3.40;;;;;;;;;;5047410;28;20422;-68
2022/09/30 06:55:38;;;;;;;2.40;2.30;;;;;;;;;;5040391;28;20534;-67
2022/09/30 06:58:08;;;;;;;2.30;1.90;;;;;;;;;;5045703;28;20433;-68
2022/09/30 07:00:35;;;;;;;2.10;2.00;;;;;;;;;;5045971;28;20482;-69
2022/09/30 07:03:01;;;;;;;5.13;2.50;;;;;;;;;;5044416;28;20477;-67
2022/09/30 07:05:27;;;;;;;2.40;2.30;;;;;;;;;;5047078;28;20519;-68
2022/09/30 07:07:53;;;;;;;1.50;1.50;;;;;;;;;;5047900;28;20517;-68
2022/09/30 07:10:20;;;;;;;11.30;2.03;;;;;;;;;;5046410;28;20475;-68
2022/09/30 07:12:53;;;;;;;4.30;1.97;;;;;;;;;;5048409;28;20427;-68
2022/09/30 07:15:22;;;;;;;2.20;2.20;;;;;;;;;;5049383;28;20402;-68
2022/09/30 07:17:51;;;;;;;1.93;1.93;;;;;;;;;;5049234;28;20803;-69
2022/09/30 07:20:17;;;;;;;1.33;1.33;;;;;;;;;;5049781;28;20463;-67
2022/09/30 07:22:45;;;;;;;1.77;1.60;;;;;;;;;;5050282;28;20852;-68
2022/09/30 07:25:11;;;;;;;11.20;1.53;;;;;;;;;;5047024;28;20454;-67
2022/09/30 07:27:37;;;;;;;1.27;1.27;;;;;;;;;;5045852;28;20466;-67
2022/09/30 07:30:04;;;;;;;6.53;2.07;;;;;;;;;;5050168;28;20422;-67
2022/09/30 07:32:30;;;;;;;2.20;2.20;;;;;;;;;;5049905;28;20526;-68
2022/09/30 07:34:56;;;;;;;1.73;1.73;;;;;;;;;;5048465;28;20427;-67
2022/09/30 07:37:24;;;;;;;3.43;2.23;;;;;;;;;;5050491;28;20518;-68
2022/09/30 07:39:49;;;;;;;1.70;1.70;;;;;;;;;;5048844;28;20566;-68
2022/09/30 07:42:20;;;;;;;8.23;1.90;;;;;;;;;;5049620;28;20556;-68
2022/09/30 07:44:47;;;;;;;2.70;2.60;;;;;;;;;;5050009;28;20422;-68
2022/09/30 07:47:14;;;;;;;4.10;1.70;;;;;;;;;;5050140;28;20425;-68
2022/09/30 07:49:41;;;;;;;3.03;1.97;;;;;;;;;;5049594;28;20497;-67
2022/09/30 07:52:07;;;;;;;2.07;2.00;;;;;;;;;;5047843;28;20986;-68
2022/09/30 07:54:34;;;;;;;16.33;2.70;;;;;;;;;;5049678;28;20431;-67
2022/09/30 07:57:00;;;;;;;3.00;2.27;;;;;;;;;;5048262;28;20456;-68
2022/09/30 07:59:27;;;;;;;15.13;5.00;;;;;;;;;;5049463;28;20517;-68
2022/09/30 08:01:53;;;;;;;2.50;2.27;;;;;;;;;;5048763;28;20512;-69
2022/09/30 08:04:20;;;;;;;5.30;1.97;;;;;;;;;;5048571;28;20517;-68
2022/09/30 08:06:50;;;;;;;8.03;2.50;;;;;;;;;;5047013;28;20969;-68
2022/09/30 08:09:19;;;;;;;2.70;2.57;;;;;;;;;;5048725;28;20431;-68
2022/09/30 08:11:45;;;;;;;1.97;1.87;;;;;;;;;;5049149;28;20422;-68
2022/09/30 08:14:16;;;;;;;1.70;1.70;;;;;;;;;;5049528;28;20454;-68
2022/09/30 08:16:42;;;;;;;2.53;2.40;;;;;;;;;;5047226;28;20441;-67
2022/09/30 08:19:12;;;;;;;4.80;2.63;;;;;;;;;;5049213;28;20418;-67
2022/09/30 08:21:38;;;;;;;2.27;2.17;;;;;;;;;;5049589;28;20549;-67
2022/09/30 08:24:04;;;;;;;5.70;3.63;;;;;;;;;;5049329;28;20514;-67
2022/09/30 08:26:30;;;;;;;9.40;2.63;;;;;;;;;;5049213;28;20911;-68
2022/09/30 08:28:56;;;;;;;6.83;3.23;;;;;;;;;;5047835;28;20461;-68
2022/09/30 08:31:23;;;;;;;7.50;3.60;;;;;;;;;;5048687;28;20509;-68
2022/09/30 08:33:49;;;;;;;11.80;2.73;;;;;;;;;;5049280;28;20472;-68
2022/09/30 08:36:19;;;;;;;21.03;3.83;;;;;;;;;;5049416;28;20906;-68
2022/09/30 08:38:45;;;;;;;2.87;2.77;;;;;;;;;;5049384;28;20829;-67
2022/09/30 08:41:20;;;;;;;10.03;2.97;;;;;;;;;;5049176;28;20671;-67
2022/09/30 08:44:01;;;;;;;4.77;3.30;;;;;;;;;;5049064;28;20926;-67
2022/09/30 08:46:35;;;;;;;2.80;2.80;;;;;;;;;;5048433;28;20430;-68
2022/09/30 08:49:20;;;;;;;23.93;4.57;;;;;;;;;;5048886;28;20422;-68
2022/09/30 08:51:47;;;;;;;8.57;3.50;;;;;;;;;;5049232;28;20861;-67
2022/09/30 08:54:15;;;;;;;3.33;3.13;;;;;;;;;;5049024;28;20934;-67
2022/09/30 08:56:42;;;;;;;5.70;3.33;;;;;;;;;;5048979;28;20414;-67
2022/09/30 08:59:20;;;;;;;2.93;2.93;;;;;;;;;;5049000;28;21437;-67
2022/09/30 09:01:48;;;;;;;4.73;3.57;;;;;;;;;;5048125;28;20511;-67
2022/09/30 09:04:14;;;;;;;8.93;4.27;;;;;;;;;;5048728;28;20913;-68
2022/09/30 09:06:55;;;;;;;11.70;3.70;;;;;;;;;;5049369;28;20448;-68
2022/09/30 09:09:31;;;;;;;4.20;3.60;;;;;;;;;;5048884;28;20457;-68
2022/09/30 09:12:09;;;;;;;3.67;3.57;;;;;;;;;;5046232;28;20438;-67
2022/09/30 09:14:38;;;;;;;3.87;3.70;;;;;;;;;;5048825;28;20437;-67
2022/09/30 09:17:31;;;;;;;4.97;4.50;;;;;;;;;;5048932;28;20442;-67
2022/09/30 09:20:02;;;;;;;4.60;4.40;;;;;;;;;;5047780;28;20464;-68
2022/09/30 09:22:29;;;;;;;4.90;4.17;;;;;;;;;;5052338;28;20482;-67
2022/09/30 09:24:56;;;;;;;4.30;4.20;;;;;;;;;;5051907;28;20418;-67
2022/09/30 09:27:41;;;;;;;35.57;5.40;;;;;;;;;;5051127;28;20453;-68
2022/09/30 09:30:09;;;;;;;7.03;4.20;;;;;;;;;;5049586;28;20426;-67
2022/09/30 09:32:35;;;;;;;15.33;4.90;;;;;;;;;;5051941;28;20907;-68
2022/09/30 09:35:06;;;;;;;5.57;5.17;;;;;;;;;;5051243;28;20418;-67
2022/09/30 09:38:37;;;;;;;22.03;6.53;;;;;;;;;;5051246;28;20438;-67
2022/09/30 09:40:55;;;;;;;17.43;5.23;;;;;;;;;;5042131;28;20439;-67
2022/09/30 09:43:30;;;;;;;4.97;4.63;;;;;;;;;;5049319;28;21044;-68
2022/09/30 09:45:56;;;;;;;5.40;4.90;;;;;;;;;;5050463;28;20509;-69
2022/09/30 09:48:21;;;;;;;4.93;4.63;;;;;;;;;;5051321;28;20855;-67
2022/09/30 09:51:05;;;;;;;6.57;6.10;;;;;;;;;;5051600;28;21593;-68
2022/09/30 09:53:37;;;;;;;5.20;4.77;;;;;;;;;;5051824;28;20446;-68
2022/09/30 09:56:17;;;;;;;8.87;5.20;;;;;;;;;;5051782;28;20453;-68
2022/09/30 09:59:03;;;;;;;4.70;4.40;;;;;;;;;;5048517;28;20426;-68
2022/09/30 10:01:33;;;;;;;4.33;4.20;;;;;;;;;;5049295;28;20886;-68
2022/09/30 10:04:14;;;;;;;5.90;4.20;;;;;;;;;;5051867;28;20446;-67
2022/09/30 10:06:48;;;;;;;4.30;4.10;;;;;;;;;;5051885;28;20419;-68
2022/09/30 10:09:24;;;;;;;5.60;5.17;;;;;;;;;;5051609;28;20422;-68
2022/09/30 10:11:50;;;;;;;5.13;4.60;;;;;;;;;;5050128;28;20805;-67
2022/09/30 10:14:20;;;;;;;5.33;5.00;;;;;;;;;;5047419;28;20443;-68
2022/09/30 10:16:47;;;;;;;6.03;5.53;;;;;;;;;;5049309;28;20426;-68
2022/09/30 10:19:33;;;;;;;5.60;5.10;;;;;;;;;;5050814;28;20976;-68
2022/09/30 10:22:08;;;;;;;4.83;4.63;;;;;;;;;;5050177;28;20653;-67
2022/09/30 10:24:35;;;;;;;5.40;4.93;;;;;;;;;;5050689;28;20430;-67
2022/09/30 10:27:01;;;;;;;6.67;6.20;;;;;;;;;;5051115;28;20419;-67
2022/09/30 10:29:30;;;;;;;5.80;5.50;;;;;;;;;;5050632;28;20979;-67
2022/09/30 10:31:56;;;;;;;7.80;6.77;;;;;;;;;;5051035;28;21685;-68
2022/09/30 10:34:31;;;;;;;6.70;6.20;;;;;;;;;;5050426;28;20432;-67
2022/09/30 10:37:00;;;;;;;5.30;5.00;;;;;;;;;;5051069;28;20414;-68
2022/09/30 10:39:28;;;;;;;6.17;5.43;;;;;;;;;;5050783;28;20523;-67
2022/09/30 10:42:13;;;;;;;4.50;4.30;;;;;;;;;;5048571;28;20505;-67
2022/09/30 10:44:44;;;;;;;5.57;5.30;;;;;;;;;;5048787;28;20426;-67
2022/09/30 10:47:13;;;;;;;9.13;5.47;;;;;;;;;;5051076;28;20438;-67
2022/09/30 10:49:44;;;;;;;6.03;5.63;;;;;;;;;;5050548;28;20510;-68
2022/09/30 10:52:37;;;;;;;5.33;5.03;;;;;;;;;;5049624;28;20426;-67
2022/09/30 10:55:07;;;;;;;6.43;5.93;;;;;;;;;;5048816;28;20442;-67
2022/09/30 10:57:36;;;;;;;8.40;5.20;;;;;;;;;;5048245;28;20434;-68
2022/09/30 11:00:08;;;;;;;6.73;6.23;;;;;;;;;;5049781;28;20458;-68
2022/09/30 11:02:36;;;;;;;6.90;6.07;;;;;;;;;;5050787;28;20482;-68
2022/09/30 11:05:07;;;;;;;6.90;6.40;;;;;;;;;;5050521;28;20402;-68
2022/09/30 11:07:38;;;;;;;5.90;5.53;;;;;;;;;;5049685;28;20453;-68
2022/09/30 11:10:10;;;;;;;5.57;4.97;;;;;;;;;;5049158;28;20941;-68
2022/09/30 11:12:51;;;;;;;6.40;5.90;;;;;;;;;;5050243;28;20480;-68
2022/09/30 11:15:28;;;;;;;11.40;7.50;;;;;;;;;;5047760;28;20526;-68
2022/09/30 11:17:57;;;;;;;5.40;5.10;;;;;;;;;;5050027;28;21091;-68
2022/09/30 11:20:26;;;;;;;7.67;5.10;;;;;;;;;;5049205;28;20439;-68
2022/09/30 11:23:15;;;;;;;8.50;7.90;;;;;;;;;;5050446;28;20481;-67
2022/09/30 11:25:53;;;;;;;5.03;4.73;;;;;;;;;;5037540;28;20438;-68
2022/09/30 11:28:38;;;;;;;5.00;4.70;;;;;;;;;;5049684;28;20434;-69
2022/09/30 11:31:13;;;;;;;6.20;5.60;;;;;;;;;;5048157;28;20426;-67
2022/09/30 11:33:39;;;;;;;5.47;5.13;;;;;;;;;;5048902;28;20434;-68
2022/09/30 11:36:08;;;;;;;7.57;6.90;;;;;;;;;;5048460;28;20483;-67
2022/09/30 11:38:48;;;;;;;6.90;6.37;;;;;;;;;;5048754;28;20442;-68
2022/09/30 11:41:30;;;;;;;5.13;4.83;;;;;;;;;;5047937;28;20442;-68
2022/09/30 11:44:04;;;;;;;9.63;5.30;;;;;;;;;;5045682;28;20790;-67
2022/09/30 11:46:33;;;;;;;6.07;5.57;;;;;;;;;;5049992;28;20410;-67
2022/09/30 11:49:05;;;;;;;5.23;4.77;;;;;;;;;;5049773;28;20689;-67
2022/09/30 11:51:39;;;;;;;4.00;3.80;;;;;;;;;;5049106;28;20414;-68
2022/09/30 11:54:11;;;;;;;4.23;4.07;;;;;;;;;;5048969;28;20418;-67
2022/09/30 11:56:49;;;;;;;3.70;3.57;;;;;;;;;;5044817;28;20446;-67
2022/09/30 11:59:21;;;;;;;6.70;5.40;;;;;;;;;;5042448;28;20529;-67
2022/09/30 12:01:49;;;;;;;17.27;5.43;;;;;;;;;;5041707;28;20478;-68
2022/09/30 12:04:30;;;;;;;12.40;7.87;;;;;;;;;;5029109;28;20558;-68
2022/09/30 12:06:56;;;;;;;9.30;8.10;;;;;;;;;;5042962;28;20442;-67
2022/09/30 12:09:24;;;;;;;4.70;4.50;;;;;;;;;;5044908;28;20438;-68
2022/09/30 12:11:57;;;;;;;6.30;5.83;;;;;;;;;;5046290;28;21235;-67
2022/09/30 12:14:26;;;;;;;5.73;5.40;;;;;;;;;;5049449;28;21975;-69
2022/09/30 12:16:52;;;;;;;3.70;3.60;;;;;;;;;;5046538;28;20686;-68
2022/09/30 12:19:25;;;;;;;4.80;4.47;;;;;;;;;;5048950;28;20446;-71
2022/09/30 12:21:52;;;;;;;4.33;4.10;;;;;;;;;;5041454;28;20556;-68
2022/09/30 12:24:24;;;;;;;4.53;4.33;;;;;;;;;;5047303;28;20942;-67
2022/09/30 12:26:50;;;;;;;5.77;5.37;;;;;;;;;;5046493;28;20426;-67
2022/09/30 12:32:28;;;;;;;5.47;5.20;;;;;;;;;;5047296;28;21199;-67
2022/09/30 12:35:16;;;;;;;3.67;3.57;;;;;;;;;;5045484;28;20532;-68
2022/09/30 12:37:50;;;;;;;4.90;4.70;;;;;;;;;;5048855;28;20426;-68
2022/09/30 12:40:35;;;;;;;3.70;3.50;;;;;;;;;;5045361;28;20434;-68
2022/09/30 12:43:04;;;;;;;6.20;4.73;;;;;;;;;;5045711;28;20489;-67
2022/09/30 12:45:30;;;;;;;5.47;4.97;;;;;;;;;;5047244;28;20458;-67
2022/09/30 12:47:57;;;;;;;7.30;3.80;;;;;;;;;;5048579;28;20461;-67
2022/09/30 12:50:27;;;;;;;6.60;4.30;;;;;;;;;;5048214;28;20596;-68
2022/09/30 12:52:56;;;;;;;3.47;3.27;;;;;;;;;;5047805;28;20480;-68
2022/09/30 12:55:26;;;;;;;4.40;4.20;;;;;;;;;;5050554;28;20414;-68
2022/09/30 12:57:53;;;;;;;4.00;3.90;;;;;;;;;;5049665;28;20444;-67
2022/09/30 13:00:26;;;;;;;3.73;3.63;;;;;;;;;;5046906;28;20465;-69
2022/09/30 13:02:57;;;;;;;4.10;3.73;;;;;;;;;;5046946;28;20500;-68
2022/09/30 13:05:26;;;;;;;4.10;3.80;;;;;;;;;;5051958;28;20793;-68
2022/09/30 13:08:04;;;;;;;4.03;3.93;;;;;;;;;;5052121;28;20818;-70
2022/09/30 13:10:32;;;;;;;3.50;3.40;;;;;;;;;;5050362;28;20445;-68
2022/09/30 13:13:10;;;;;;;3.90;3.63;;;;;;;;;;5051918;28;20442;-67
2022/09/30 13:15:36;;;;;;;7.30;3.30;;;;;;;;;;5049785;28;20790;-68
2022/09/30 13:18:25;;;;;;;3.40;3.30;;;;;;;;;;5052474;28;20998;-67
2022/09/30 13:21:07;;;;;;;5.60;3.70;;;;;;;;;;5051061;28;20856;-67
2022/09/30 13:23:39;;;;;;;3.27;3.10;;;;;;;;;;5052380;28;20564;-67
2022/09/30 13:26:23;;;;;;;2.30;2.30;;;;;;;;;;5052534;28;20772;-68
2022/09/30 13:28:51;;;;;;;2.30;2.30;;;;;;;;;;5052261;28;20476;-67
2022/09/30 13:31:18;;;;;;;2.20;2.00;;;;;;;;;;5050350;28;20831;-67
2022/09/30 13:33:46;;;;;;;4.50;2.23;;;;;;;;;;5051748;28;20476;-68
2022/09/30 13:36:25;;;;;;;2.50;2.40;;;;;;;;;;5051974;28;20438;-67
2022/09/30 13:39:05;;;;;;;1.70;1.70;;;;;;;;;;5052063;28;20426;-67
2022/09/30 13:41:34;;;;;;;1.80;1.80;;;;;;;;;;5049876;28;20465;-67
2022/09/30 13:44:09;;;;;;;2.47;2.27;;;;;;;;;;5051969;28;20422;-68
2022/09/30 13:46:55;;;;;;;2.33;2.13;;;;;;;;;;5050959;28;20496;-68
2022/09/30 13:49:24;;;;;;;1.27;1.27;;;;;;;;;;5048856;28;20847;-68
2022/09/30 13:51:51;;;;;;;1.40;1.40;;;;;;;;;;5044210;28;20434;-67
2022/09/30 13:54:34;;;;;;;1.83;1.60;;;;;;;;;;5051362;28;20461;-67
2022/09/30 13:57:01;;;;;;;1.80;1.70;;;;;;;;;;5048712;28;20426;-68
2022/09/30 13:59:31;;;;;;;3.37;1.20;;;;;;;;;;5049167;28;20438;-67
2022/09/30 14:02:15;;;;;;;14.27;2.00;;;;;;;;;;5050003;28;20888;-68
2022/09/30 14:04:50;;;;;;;1.40;1.40;;;;;;;;;;5050851;28;21441;-67
2022/09/30 14:07:36;;;;;;;0.93;0.83;;;;;;;;;;5047126;28;20956;-67
2022/09/30 14:10:10;;;;;;;0.90;0.90;;;;;;;;;;5050013;28;20423;-68
2022/09/30 14:12:55;;;;;;;1.10;1.10;;;;;;;;;;5044527;28;20518;-66
2022/09/30 14:15:41;;;;;;;0.70;0.70;;;;;;;;;;5047378;28;20441;-67
2022/09/30 14:18:22;;;;;;;0.83;0.83;;;;;;;;;;5050281;28;20983;-67
2022/09/30 14:20:48;;;;;;;0.80;0.80;;;;;;;;;;5049119;28;20765;-68
2022/09/30 14:23:15;;;;;;;0.90;0.90;;;;;;;;;;5048211;28;20470;-68
2022/09/30 14:25:44;;;;;;;2.00;1.90;;;;;;;;;;5047369;28;20431;-68
2022/09/30 14:28:15;;;;;;;3.97;1.40;;;;;;;;;;5048252;28;20430;-67
2022/09/30 14:31:06;;;;;;;1.10;1.10;;;;;;;;;;5049414;28;20448;-68
2022/09/30 14:33:33;;;;;;;1.10;1.10;;;;;;;;;;5049557;28;20430;-68
2022/09/30 14:36:01;;;;;;;1.53;1.10;;;;;;;;;;5051371;28;20790;-68
2022/09/30 14:38:29;;;;;;;0.77;0.77;;;;;;;;;;5050380;28;20838;-68
2022/09/30 14:40:56;;;;;;;1.03;1.03;;;;;;;;;;5048097;28;20786;-68
2022/09/30 14:43:31;;;;;;;2.17;0.90;;;;;;;;;;5048151;28;21012;-68
2022/09/30 14:46:00;;;;;;;0.57;0.57;;;;;;;;;;5048332;28;20414;-67
2022/09/30 14:48:28;;;;;;;0.90;0.90;;;;;;;;;;5050005;28;20978;-67
2022/09/30 14:51:00;;;;;;;0.70;0.70;;;;;;;;;;5046650;28;20524;-67
2022/09/30 14:53:27;;;;;;;0.70;0.70;;;;;;;;;;5050914;28;20501;-67
2022/09/30 14:55:53;;;;;;;0.87;0.87;;;;;;;;;;5050674;28;20437;-68
2022/09/30 14:58:30;;;;;;;0.73;0.73;;;;;;;;;;5048474;28;20434;-67
2022/09/30 15:00:59;;;;;;;0.90;0.90;;;;;;;;;;5044576;28;20474;-68
2022/09/30 15:03:25;;;;;;;1.00;1.00;;;;;;;;;;5045953;28;20832;-67
2022/09/30 15:05:51;;;;;;;2.97;0.80;;;;;;;;;;5047766;28;20446;-67
2022/09/30 15:08:19;;;;;;;0.70;0.70;;;;;;;;;;5047993;28;20442;-67